Time;durP1;ratioP1;P1;durP2;ratioP2;P2;SDS_P1;SDS_P2;PMS_P1;PMS_P2;Temp;Humidity;BMP_temperature;BMP_pressure;BME280_temperature;BME280_humidity;BME280_pressure;Samples;Min_cycle;Max_cycle;Signal;HPM_P1;HPM_P2
2021/12/05 00:27:29;;;;;;;3.63;1.93;;;7.40;99.90;;;;;;4819298;29;20457;-92
2021/12/05 00:34:50;;;;;;;7.20;2.37;;;7.30;99.90;;;;;;4747827;30;20501;-88
2021/12/05 00:52:14;;;;;;;5.27;2.40;;;7.50;99.90;;;;;;4919745;29;20426;-90
2021/12/05 01:02:10;;;;;;;5.33;2.90;;;7.50;99.90;;;;;;4918526;29;21902;-88
2021/12/05 01:04:27;;;;;;;5.37;1.57;;;7.50;99.90;;;;;;4916660;29;20477;-92
2021/12/05 01:15:58;;;;;;;4.37;2.03;;;7.60;99.90;;;;;;4866738;29;20521;-91
2021/12/05 01:18:35;;;;;;;7.90;2.90;;;7.60;99.90;;;;;;4846779;29;20494;-91
2021/12/05 01:21:09;;;;;;;3.23;2.13;;;7.60;99.90;;;;;;4870634;29;20484;-90
2021/12/05 01:27:42;;;;;;;5.17;2.27;;;7.60;99.90;;;;;;4808730;29;20538;-89
2021/12/05 01:33:40;;;;;;;3.90;2.13;;;7.60;99.90;;;;;;4912278;29;20542;-89
2021/12/05 01:36:29;;;;;;;2.40;1.70;;;7.40;99.90;;;;;;4900771;29;20461;-86
2021/12/05 02:37:51;;;;;;;5.50;1.93;;;7.40;99.90;;;;;;4910179;29;20460;-90
2021/12/05 02:43:58;;;;;;;4.97;1.73;;;7.40;99.90;;;;;;4863409;29;21717;-89
2021/12/05 02:49:39;;;;;;;4.90;1.70;;;7.50;99.90;;;;;;4913376;29;20469;-87
2021/12/05 02:52:17;;;;;;;6.73;1.87;;;7.40;99.90;;;;;;4893929;29;20466;-89
2021/12/05 02:55:28;;;;;;;6.93;1.57;;;7.40;99.90;;;;;;4900172;29;21857;-86
2021/12/05 02:59:17;;;;;;;;;;;;;;;;;;;;;
2021/12/05 03:02:18;;;;;;;7.57;1.80;;;7.30;99.90;;;;;;4869591;29;20464;-86
2021/12/05 03:04:53;;;;;;;5.67;1.60;;;7.40;99.90;;;;;;4859222;29;20929;-88
2021/12/05 03:07:27;;;;;;;5.30;2.17;;;7.30;99.90;;;;;;4858095;29;20461;-88
2021/12/05 03:10:47;;;;;;;;;;;;;;;;;;;;;
2021/12/05 03:13:40;;;;;;;6.57;1.87;;;7.10;99.90;;;;;;4864374;29;21043;-87
2021/12/05 03:19:24;;;;;;;;;;;;;;;;;;;;;
2021/12/05 03:22:17;;;;;;;3.50;1.60;;;7.10;99.90;;;;;;4855659;29;20583;-87
2021/12/05 03:25:28;;;;;;;3.40;1.53;;;7.10;99.90;;;;;;4856466;29;20488;-88
2021/12/05 03:28:39;;;;;;;6.67;2.20;;;7.00;99.90;;;;;;4840502;29;20984;-86
2021/12/05 03:31:35;;;;;;;6.87;1.60;;;7.00;99.90;;;;;;4860233;29;20548;-87
2021/12/05 03:34:27;;;;;;;5.33;1.67;;;7.10;99.90;;;;;;4854235;29;20555;-89
2021/12/05 03:40:38;;;;;;;5.03;2.10;;;7.10;99.90;;;;;;4904140;29;20545;-89
2021/12/05 03:43:40;;;;;;;6.17;1.90;;;7.00;99.90;;;;;;4827713;29;20479;-88
2021/12/05 03:46:52;;;;;;;2.87;2.20;;;6.70;99.90;;;;;;4892770;29;20502;-88
2021/12/05 03:49:39;;;;;;;8.80;1.67;;;6.80;99.90;;;;;;4892491;29;20459;-88
2021/12/05 03:53:21;;;;;;;4.23;1.87;;;6.70;99.90;;;;;;4896814;29;21301;-89
2021/12/05 03:56:37;;;;;;;6.30;2.20;;;6.90;99.90;;;;;;4850086;29;20442;-88
2021/12/05 03:59:15;;;;;;;4.73;1.70;;;6.80;99.90;;;;;;4881879;29;20500;-88
2021/12/05 04:02:07;;;;;;;6.77;2.53;;;6.90;99.90;;;;;;4880505;29;20563;-86
2021/12/05 04:04:53;;;;;;;11.90;2.30;;;6.90;99.90;;;;;;4873391;29;20519;-88
2021/12/05 04:07:48;;;;;;;5.03;2.20;;;6.90;99.90;;;;;;4896645;29;20567;-89
2021/12/05 04:10:58;;;;;;;5.70;1.90;;;7.00;99.90;;;;;;4839658;29;20540;-88
2021/12/05 04:17:37;;;;;;;6.90;2.03;;;6.90;99.90;;;;;;4843562;29;20451;-88
2021/12/05 04:20:44;;;;;;;5.00;1.80;;;6.90;99.90;;;;;;4847795;29;20457;-89
2021/12/05 04:23:35;;;;;;;3.43;1.50;;;6.80;99.90;;;;;;4834088;29;20505;-88
2021/12/05 04:26:33;;;;;;;8.80;1.90;;;6.80;99.90;;;;;;4842744;29;20495;-87
2021/12/05 04:29:36;;;;;;;3.90;1.60;;;6.80;99.90;;;;;;4838510;29;20458;-87
2021/12/05 04:32:49;;;;;;;4.10;1.50;;;6.70;99.90;;;;;;4842288;29;20481;-87
2021/12/05 04:36:13;;;;;;;3.20;1.37;;;6.70;99.90;;;;;;4835487;29;21851;-87
2021/12/05 04:39:22;;;;;;;4.37;1.33;;;6.70;99.90;;;;;;4832875;29;20506;-87
2021/12/05 04:42:17;;;;;;;4.90;1.33;;;6.50;99.90;;;;;;4880161;29;20469;-89
2021/12/05 04:48:20;;;;;;;5.47;1.50;;;6.70;99.90;;;;;;4887571;29;20887;-87
2021/12/05 04:54:33;;;;;;;;;;;;;;;;;;;;;
2021/12/05 04:57:48;;;;;;;3.77;1.60;;;6.60;99.90;;;;;;4809918;29;20444;-87
2021/12/05 05:00:37;;;;;;;2.73;0.97;;;6.70;99.90;;;;;;4853014;29;21109;-88
2021/12/05 05:03:28;;;;;;;4.67;3.73;;;6.60;99.90;;;;;;4837371;29;20603;-88
2021/12/05 05:06:26;;;;;;;5.20;1.20;;;6.50;99.90;;;;;;4888038;29;20482;-87
2021/12/05 05:09:14;;;;;;;4.93;1.30;;;6.40;99.90;;;;;;4893463;29;20446;-86
2021/12/05 05:11:59;;;;;;;5.27;1.60;;;6.40;99.90;;;;;;4905888;29;20462;-87
2021/12/05 05:14:42;;;;;;;4.40;1.40;;;6.40;99.90;;;;;;4897246;29;20581;-87
2021/12/05 05:17:37;;;;;;;3.73;1.63;;;6.40;99.90;;;;;;4896415;29;21039;-88
2021/12/05 05:20:24;;;;;;;4.30;1.30;;;6.40;99.90;;;;;;4895121;29;20459;-87
2021/12/05 05:50:08;;;;;;;6.03;1.30;;;6.40;99.90;;;;;;4886727;29;20452;-89
2021/12/05 05:53:05;;;;;;;5.30;1.77;;;6.40;99.90;;;;;;4877532;29;21502;-87
2021/12/05 05:55:36;;;;;;;1.83;1.37;;;6.30;99.90;;;;;;4874907;29;20468;-86
2021/12/05 06:04:12;;;;;;;3.67;1.40;;;6.20;99.90;;;;;;4789858;29;20499;-87
2021/12/05 06:06:44;;;;;;;4.73;1.33;;;6.10;99.90;;;;;;4834342;29;20604;-85
2021/12/05 06:09:19;;;;;;;2.90;1.70;;;6.20;99.90;;;;;;4892836;29;20483;-88
2021/12/05 06:12:25;;;;;;;1.60;1.10;;;6.30;99.90;;;;;;4889697;29;20467;-88
2021/12/05 06:15:18;;;;;;;4.50;1.63;;;6.40;99.90;;;;;;4890048;29;20439;-86
2021/12/05 06:17:46;;;;;;;3.03;1.60;;;6.30;99.90;;;;;;4883958;29;20470;-86
2021/12/05 06:20:23;;;;;;;2.20;1.37;;;6.30;99.90;;;;;;4889464;29;20521;-86
2021/12/05 06:23:09;;;;;;;4.47;1.40;;;6.10;99.90;;;;;;4887458;29;20561;-86
2021/12/05 06:26:43;;;;;;;2.77;1.27;;;6.00;99.90;;;;;;4854247;29;20494;-88
2021/12/05 06:29:17;;;;;;;5.57;1.80;;;6.00;99.90;;;;;;4835347;29;21679;-88
2021/12/05 06:47:25;;;;;;;4.90;1.60;;;5.90;99.90;;;;;;4915389;29;20493;-86
2021/12/05 06:49:57;;;;;;;9.53;2.13;;;5.90;99.90;;;;;;4909109;29;20459;-87
2021/12/05 06:52:56;;;;;;;5.67;1.40;;;5.90;99.90;;;;;;4911283;28;20500;-90
2021/12/05 06:56:02;;;;;;;1.70;1.23;;;6.10;99.90;;;;;;4940110;28;20446;-90
2021/12/05 07:02:17;;;;;;;2.43;1.50;;;6.00;99.90;;;;;;4856659;28;20462;-88
2021/12/05 07:08:17;;;;;;;3.40;1.20;;;5.70;99.90;;;;;;4888433;28;20466;-87
2021/12/05 07:14:07;;;;;;;4.23;1.53;;;6.00;99.90;;;;;;4918446;28;20617;-87
2021/12/05 07:20:03;;;;;;;4.00;1.50;;;6.10;99.90;;;;;;4922993;28;20502;-87
2021/12/05 07:23:17;;;;;;;2.00;1.30;;;6.00;99.90;;;;;;4919633;29;20507;-89
2021/12/05 07:44:26;;;;;;;2.40;1.33;;;6.10;99.90;;;;;;5083681;28;20489;-90
2021/12/05 07:47:34;;;;;;;1.77;1.10;;;6.10;99.90;;;;;;5066728;28;20522;-90
2021/12/05 07:50:38;;;;;;;5.30;1.37;;;6.10;99.90;;;;;;5065846;28;20521;-88
2021/12/05 07:54:16;;;;;;;1.50;1.40;;;6.00;99.90;;;;;;5064918;28;20532;-88
2021/12/05 07:57:14;;;;;;;2.60;1.03;;;6.10;99.90;;;;;;5054992;28;20490;-89
2021/12/05 08:00:28;;;;;;;1.73;1.40;;;6.10;99.90;;;;;;5056300;28;20515;-88
2021/12/05 08:16:04;;;;;;;6.40;2.23;;;6.20;99.90;;;;;;5090429;28;20466;-90
2021/12/05 08:19:03;;;;;;;2.80;1.40;;;6.10;99.90;;;;;;5060939;28;20866;-88
2021/12/05 08:22:01;;;;;;;1.90;1.70;;;6.10;99.90;;;;;;5071766;28;20458;-91
2021/12/05 08:28:06;;;;;;;3.37;1.93;;;6.10;99.90;;;;;;5133349;23;22067;-88
2021/12/05 08:30:50;;;;;;;1.73;1.37;;;6.10;99.90;;;;;;5003036;28;20444;-89
2021/12/05 08:34:42;;;;;;;2.47;1.90;;;6.20;99.90;;;;;;4999875;28;20483;-88
2021/12/05 09:28:19;;;;;;;3.10;1.10;;;6.30;99.90;;;;;;4923660;28;21895;-88
2021/12/05 10:10:57;;;;;;;4.63;1.50;;;7.00;99.90;;;;;;4973992;28;20496;-87
2021/12/05 10:26:02;;;;;;;2.70;1.10;;;6.90;99.90;;;;;;4990652;28;21083;-88
2021/12/05 10:34:04;;;;;;;1.33;1.03;;;7.40;99.90;;;;;;4946229;28;20532;-89
2021/12/05 10:37:21;;;;;;;1.90;0.80;;;7.20;99.90;;;;;;4939638;28;20477;-87
2021/12/05 10:40:32;;;;;;;;;;;;;;;;;;;;;
2021/12/05 10:43:59;;;;;;;3.03;1.83;;;7.20;99.90;;;;;;4870094;29;20473;-88
2021/12/05 10:47:21;;;;;;;2.83;1.60;;;7.30;99.90;;;;;;4870320;29;20523;-87
2021/12/05 10:50:18;;;;;;;3.80;1.93;;;7.20;99.90;;;;;;4884152;28;20893;-88
2021/12/05 10:57:00;;;;;;;3.00;2.63;;;7.60;99.90;;;;;;4926848;28;20472;-88
2021/12/05 11:00:18;;;;;;;1.60;1.47;;;7.80;99.90;;;;;;4832123;29;20480;-91
2021/12/05 11:06:58;;;;;;;1.80;1.30;;;7.60;99.90;;;;;;4794262;29;20533;-88
2021/12/05 11:10:03;;;;;;;1.40;1.30;;;7.70;99.90;;;;;;4837137;29;20564;-87
2021/12/05 11:12:38;;;;;;;2.63;1.00;;;7.80;99.90;;;;;;4857767;29;20490;-90
2021/12/05 11:15:43;;;;;;;1.73;1.17;;;7.80;99.90;;;;;;4858216;29;20841;-89
2021/12/05 11:18:40;;;;;;;1.33;1.00;;;7.80;99.90;;;;;;4844668;29;20474;-91
2021/12/05 11:21:37;;;;;;;1.53;1.23;;;7.70;99.90;;;;;;4861857;28;20467;-89
2021/12/05 11:25:02;;;;;;;2.30;1.50;;;7.60;99.90;;;;;;4886305;28;20785;-87
2021/12/05 11:28:04;;;;;;;1.97;1.40;;;7.90;99.90;;;;;;4854858;29;20542;-90
2021/12/05 11:30:56;;;;;;;2.40;0.97;;;7.90;99.90;;;;;;4876408;29;21079;-88
2021/12/05 11:34:17;;;;;;;;;;;;;;;;;;;;;
2021/12/05 11:37:13;;;;;;;1.83;1.20;;;7.90;99.90;;;;;;5008237;28;20469;-88
2021/12/05 11:39:48;;;;;;;1.30;1.20;;;7.90;99.90;;;;;;4996180;28;20509;-89
2021/12/05 11:42:49;;;;;;;1.23;1.10;;;7.90;99.90;;;;;;4988730;28;20488;-90
2021/12/05 11:46:08;;;;;;;3.50;1.50;;;7.70;99.90;;;;;;4995012;28;20536;-89
2021/12/05 11:49:03;;;;;;;3.40;1.30;;;7.80;99.90;;;;;;4982038;28;20470;-87
2021/12/05 11:52:19;;;;;;;2.07;1.50;;;7.80;99.90;;;;;;4994179;28;20446;-89
2021/12/05 12:00:35;;;;;;;1.67;1.57;;;8.10;99.90;;;;;;4938464;28;20532;-86
2021/12/05 12:03:11;;;;;;;1.03;1.00;;;8.30;99.90;;;;;;4937554;28;20558;-86
2021/12/05 12:06:09;;;;;;;2.43;1.50;;;8.10;99.90;;;;;;4937863;28;20493;-87
2021/12/05 12:08:42;;;;;;;2.87;1.00;;;7.90;99.90;;;;;;4946172;28;20916;-87
2021/12/05 12:11:49;;;;;;;1.17;1.07;;;8.00;99.90;;;;;;4949823;28;20503;-89
2021/12/05 12:17:16;;;;;;;1.10;1.00;;;8.20;99.90;;;;;;4980917;23;20518;-90
2021/12/05 12:20:16;;;;;;;2.10;1.40;;;8.30;99.90;;;;;;4889643;28;21450;-87
2021/12/05 12:23:01;;;;;;;2.13;1.20;;;8.30;99.90;;;;;;4902009;28;20461;-87
2021/12/05 12:25:37;;;;;;;0.83;0.83;;;8.20;99.90;;;;;;4942036;28;20483;-90
2021/12/05 12:28:18;;;;;;;2.80;1.70;;;8.30;99.90;;;;;;4997486;23;20499;-90
2021/12/05 12:31:08;;;;;;;2.23;1.20;;;8.30;99.90;;;;;;4947956;28;20459;-90
2021/12/05 12:33:47;;;;;;;2.20;1.50;;;7.90;99.90;;;;;;4951506;28;20479;-87
2021/12/05 12:36:36;;;;;;;3.07;1.40;;;7.90;99.90;;;;;;5064865;23;20502;-88
2021/12/05 12:39:21;;;;;;;1.40;1.30;;;8.00;99.90;;;;;;4975396;28;20465;-88
2021/12/05 12:42:04;;;;;;;2.97;0.90;;;8.30;99.90;;;;;;4986868;28;21971;-87
2021/12/05 12:44:57;;;;;;;1.30;1.20;;;8.20;99.90;;;;;;4971039;28;20528;-88
2021/12/05 12:48:22;;;;;;;1.37;1.27;;;8.30;99.90;;;;;;4949298;28;20464;-87
2021/12/05 12:50:58;;;;;;;1.77;1.20;;;8.00;99.90;;;;;;4965638;28;20437;-87
2021/12/05 12:53:55;;;;;;;1.27;1.13;;;8.00;99.90;;;;;;4948219;28;20515;-88
2021/12/05 12:56:35;;;;;;;1.10;1.00;;;8.00;99.90;;;;;;4956905;28;20500;-88
2021/12/05 12:59:28;;;;;;;1.67;0.90;;;8.30;99.40;;;;;;4981290;28;20475;-90
2021/12/05 13:02:28;;;;;;;1.77;1.00;;;8.50;98.90;;;;;;4962130;28;20443;-87
2021/12/05 13:05:52;;;;;;;;;;;;;;;;;;;;;
2021/12/05 13:12:15;;;;;;;1.57;1.00;;;8.50;98.80;;;;;;4962227;28;20971;-89
2021/12/05 13:15:08;;;;;;;1.10;1.00;;;8.30;98.60;;;;;;4958683;28;20501;-87
2021/12/05 13:17:44;;;;;;;1.70;1.37;;;8.50;98.70;;;;;;4953732;28;20543;-87
2021/12/05 13:21:04;;;;;;;1.20;1.10;;;8.70;98.10;;;;;;4941218;28;20449;-87
2021/12/05 13:23:54;;;;;;;2.37;0.90;;;8.80;96.80;;;;;;4952264;28;20493;-89
2021/12/05 13:46:43;;;;;;;2.10;1.13;;;8.70;94.80;;;;;;4979058;28;20792;-91
2021/12/05 13:49:40;;;;;;;2.00;1.10;;;8.80;94.70;;;;;;4998209;28;20520;-88
2021/12/05 13:52:55;;;;;;;0.80;0.80;;;8.60;95.10;;;;;;5002807;28;20527;-89
2021/12/05 13:56:09;;;;;;;1.63;0.80;;;8.70;94.80;;;;;;4976324;28;20476;-87
2021/12/05 13:59:17;;;;;;;1.87;0.73;;;8.80;94.50;;;;;;4944334;28;20449;-87
2021/12/05 14:01:59;;;;;;;0.60;0.60;;;8.80;94.50;;;;;;4956793;28;20426;-86
2021/12/05 14:05:18;;;;;;;1.80;0.90;;;8.70;94.70;;;;;;4970261;28;20528;-88
2021/12/05 14:08:17;;;;;;;1.00;0.80;;;8.70;95.10;;;;;;4949611;28;20536;-88
2021/12/05 14:11:05;;;;;;;1.17;0.80;;;8.90;94.60;;;;;;4963638;28;20468;-86
2021/12/05 14:15:03;;;;;;;1.13;1.00;;;8.80;94.70;;;;;;5002328;23;20499;-88
2021/12/05 14:18:53;;;;;;;;;;;;;;;;;;;;;
2021/12/05 14:22:08;;;;;;;1.47;0.87;;;8.70;94.80;;;;;;4981828;28;20499;-87
2021/12/05 14:30:34;;;;;;;1.87;1.20;;;8.90;95.30;;;;;;5574835;23;20502;-91
2021/12/05 14:33:11;;;;;;;1.97;1.50;;;8.80;95.40;;;;;;4966250;28;20472;-90
2021/12/05 14:35:45;;;;;;;1.40;1.30;;;8.80;95.50;;;;;;4977363;28;20455;-90
2021/12/05 14:38:28;;;;;;;2.23;1.70;;;8.70;95.40;;;;;;4952873;28;20461;-88
2021/12/05 14:41:05;;;;;;;2.57;1.20;;;8.80;95.70;;;;;;4953910;28;20451;-86
2021/12/05 14:44:30;;;;;;;3.53;1.40;;;8.80;95.60;;;;;;4952767;28;20940;-88
2021/12/05 14:50:36;;;;;;;4.33;1.60;;;8.70;95.90;;;;;;4956456;28;20453;-89
2021/12/05 14:53:18;;;;;;;2.00;1.80;;;8.60;95.80;;;;;;4943813;28;20492;-88
2021/12/05 14:56:08;;;;;;;3.80;2.03;;;8.60;96.20;;;;;;4960864;28;21628;-87
2021/12/05 14:59:37;;;;;;;3.47;2.30;;;8.60;96.10;;;;;;4966855;28;20459;-89
2021/12/05 15:13:17;;;;;;;1.97;1.60;;;8.80;95.80;;;;;;4944218;28;20517;-86
2021/12/05 15:15:54;;;;;;;2.40;1.10;;;8.80;95.80;;;;;;4927469;29;20468;-88
2021/12/05 15:18:32;;;;;;;2.07;1.70;;;8.80;95.50;;;;;;4928218;29;20468;-88
2021/12/05 15:21:48;;;;;;;4.43;2.60;;;8.70;95.60;;;;;;4931727;29;20461;-87
2021/12/05 15:25:14;;;;;;;2.20;1.87;;;8.60;95.90;;;;;;4947604;28;20483;-87
2021/12/05 15:28:26;;;;;;;5.97;2.10;;;8.60;95.90;;;;;;4924478;29;20548;-87
2021/12/05 15:31:44;;;;;;;1.90;1.70;;;8.70;96.10;;;;;;4933074;29;20456;-89
2021/12/05 15:37:25;;;;;;;4.37;2.00;;;8.20;96.60;;;;;;5012497;23;20516;-90
2021/12/05 15:40:44;;;;;;;2.77;2.03;;;8.30;96.90;;;;;;4963213;28;20433;-89
2021/12/05 15:47:33;;;;;;;5.73;2.40;;;8.80;95.80;;;;;;4959665;29;20465;-88
2021/12/05 15:50:51;;;;;;;2.40;1.80;;;8.90;95.60;;;;;;4944290;29;20488;-87
2021/12/05 15:53:41;;;;;;;2.20;2.00;;;8.90;95.40;;;;;;4909702;29;20839;-88
2021/12/05 15:57:16;;;;;;;2.37;2.17;;;8.80;95.50;;;;;;4926707;29;20935;-87
2021/12/05 16:01:14;;;;;;;2.57;1.90;;;8.90;95.50;;;;;;4958366;29;20472;-87
2021/12/05 16:07:50;;;;;;;4.40;2.90;;;8.70;96.10;;;;;;4957342;29;20492;-89
2021/12/05 16:10:38;;;;;;;6.00;3.53;;;8.60;96.70;;;;;;4938255;29;21002;-88
2021/12/05 16:13:58;;;;;;;2.70;1.90;;;8.60;97.40;;;;;;4939684;29;20490;-87
2021/12/05 16:16:45;;;;;;;3.30;2.57;;;8.60;97.40;;;;;;4942514;29;20446;-87
2021/12/05 16:20:44;;;;;;;2.43;1.73;;;8.50;97.50;;;;;;4946283;29;20422;-88
2021/12/05 16:23:37;;;;;;;3.10;2.10;;;8.60;97.50;;;;;;4951719;28;20471;-86
2021/12/05 16:27:01;;;;;;;3.47;2.40;;;8.60;97.90;;;;;;4959176;29;20481;-87
2021/12/05 16:40:23;;;;;;;1.98;1.88;;;8.50;97.90;;;;;;6047520;22;1514430;-90
2021/12/05 16:43:16;;;;;;;2.47;1.90;;;8.40;98.80;;;;;;6115242;23;20206;-88
2021/12/05 16:46:25;;;;;;;2.80;2.27;;;8.20;99.10;;;;;;6171475;23;20484;-91
2021/12/05 16:49:58;;;;;;;3.40;2.50;;;8.20;99.80;;;;;;6158090;23;20439;-90
2021/12/05 16:52:50;;;;;;;5.30;2.67;;;8.20;99.90;;;;;;6167539;23;20425;-91
2021/12/05 16:55:42;;;;;;;2.97;2.20;;;8.20;99.80;;;;;;6162385;23;20402;-88
2021/12/05 16:58:28;;;;;;;;;;;;;;;;;;;;;
2021/12/05 17:01:21;;;;;;;2.73;1.80;;;8.30;99.10;;;;;;6156383;23;20421;-90
2021/12/05 17:04:14;;;;;;;2.40;2.03;;;8.30;99.60;;;;;;6172108;23;20465;-90
2021/12/05 17:07:14;;;;;;;2.23;2.00;;;8.40;99.00;;;;;;6158673;23;20413;-88
2021/12/05 17:10:21;;;;;;;3.63;2.63;;;8.20;99.50;;;;;;6169797;23;20413;-91
2021/12/05 17:13:27;;;;;;;2.83;2.50;;;8.20;99.90;;;;;;6162756;23;20419;-88
2021/12/05 17:19:51;;;;;;;3.20;2.10;;;8.30;99.90;;;;;;6173067;23;20373;-88
2021/12/05 17:25:58;;;;;;;4.67;2.47;;;8.60;98.60;;;;;;6176299;23;20422;-88
2021/12/05 17:28:59;;;;;;;2.87;2.40;;;8.50;98.70;;;;;;6142975;23;20957;-89
2021/12/05 17:32:12;;;;;;;3.43;2.80;;;8.60;98.80;;;;;;6134326;23;20412;-90
2021/12/05 17:34:59;;;;;;;2.73;2.50;;;8.50;98.30;;;;;;6143606;23;20398;-88
2021/12/05 17:37:45;;;;;;;2.57;1.60;;;8.50;99.00;;;;;;6113136;23;20424;-85
2021/12/05 17:40:57;;;;;;;2.60;1.93;;;8.40;98.60;;;;;;6104584;23;20487;-89
2021/12/05 17:44:00;;;;;;;4.23;2.50;;;8.10;99.10;;;;;;6109858;23;20524;-87
2021/12/05 17:47:25;;;;;;;2.13;1.97;;;8.20;99.90;;;;;;6108687;23;20411;-89
2021/12/05 17:50:19;;;;;;;2.90;2.20;;;8.50;99.80;;;;;;6099222;23;20409;-90
2021/12/05 17:53:38;;;;;;;2.07;1.87;;;8.50;99.00;;;;;;6112069;23;20558;-88
2021/12/05 17:56:34;;;;;;;2.60;2.40;;;8.60;98.30;;;;;;6134775;23;20512;-86
2021/12/05 18:08:54;;;;;;;3.07;2.80;;;8.20;99.70;;;;;;6110787;23;20448;-87
2021/12/05 18:11:35;;;;;;;3.47;3.00;;;8.30;99.90;;;;;;6108208;23;20520;-89
2021/12/05 18:14:44;;;;;;;5.47;3.23;;;8.20;99.90;;;;;;6109002;23;20464;-89
2021/12/05 18:18:00;;;;;;;2.80;2.53;;;8.20;99.90;;;;;;6005566;23;20451;-87
2021/12/05 18:21:18;;;;;;;3.13;2.27;;;8.30;99.90;;;;;;5913374;24;20428;-86
2021/12/05 18:34:47;;;;;;;3.13;1.70;;;8.00;99.90;;;;;;6110714;23;20453;-87
2021/12/05 19:13:46;;;;;;;;;;;;;;;;;;;;;
2021/12/05 19:17:06;;;;;;;2.17;1.97;;;8.10;99.90;;;;;;6088738;23;20454;-88
2021/12/05 19:20:30;;;;;;;2.30;1.63;;;8.10;99.90;;;;;;6100141;23;20430;-85
2021/12/05 19:23:15;;;;;;;2.53;1.73;;;8.10;99.90;;;;;;6096469;23;20482;-88
2021/12/05 19:26:20;;;;;;;2.70;1.80;;;7.90;99.90;;;;;;6118976;23;20403;-85
2021/12/05 19:29:08;;;;;;;1.80;1.67;;;7.90;99.90;;;;;;6132379;23;20459;-88
2021/12/05 19:32:02;;;;;;;2.60;2.27;;;7.90;99.90;;;;;;6011268;23;20410;-86
2021/12/05 19:35:20;;;;;;;2.10;1.90;;;7.70;99.90;;;;;;6117609;23;20584;-87
2021/12/05 19:38:13;;;;;;;3.63;2.17;;;7.70;99.90;;;;;;6128454;23;20388;-87
2021/12/05 19:41:18;;;;;;;2.40;2.10;;;7.70;99.90;;;;;;6126377;23;20377;-87
2021/12/05 19:44:07;;;;;;;2.40;1.60;;;7.60;99.90;;;;;;6119799;23;20488;-85
2021/12/05 19:47:11;;;;;;;7.60;3.33;;;7.90;99.90;;;;;;6128770;23;20759;-86
2021/12/05 19:54:14;;;;;;;;;;;;;;;;;;;;;
2021/12/05 19:57:08;;;;;;;3.50;2.67;;;7.70;99.90;;;;;;6044205;23;20418;-86
2021/12/05 20:06:48;;;;;;;2.63;2.43;;;7.70;99.90;;;;;;6135230;23;20511;-84
2021/12/05 20:10:08;;;;;;;2.20;1.97;;;7.50;99.90;;;;;;6135994;23;20458;-86
2021/12/05 20:17:34;;;;;;;;;;;;;;;;;;;;;
2021/12/05 20:21:12;;;;;;;4.37;2.33;;;7.30;99.90;;;;;;6023975;23;20387;-87
2021/12/05 20:24:05;;;;;;;4.00;2.67;;;7.60;99.90;;;;;;6093595;23;20455;-87
2021/12/05 20:26:38;;;;;;;4.80;2.27;;;7.50;99.90;;;;;;6138544;23;20424;-87
2021/12/05 20:29:41;;;;;;;3.20;2.20;;;7.50;99.90;;;;;;6123262;23;20455;-86
2021/12/05 20:36:06;;;;;;;;;;;;;;;;;;;;;
2021/12/05 20:38:53;;;;;;;6.30;2.60;;;7.80;99.90;;;;;;6136909;23;20419;-87
2021/12/05 20:41:22;;;;;;;3.60;2.33;;;7.80;99.90;;;;;;6140661;23;20462;-87
2021/12/05 20:44:30;;;;;;;4.27;3.00;;;7.70;99.90;;;;;;6083516;23;20431;-90
2021/12/05 20:47:25;;;;;;;;;;;;;;;;;;;;;
2021/12/05 20:55:56;;;;;;;3.47;2.70;;;7.30;99.90;;;;;;6146676;23;20455;-85
2021/12/05 20:58:51;;;;;;;3.63;3.33;;;7.20;99.90;;;;;;6144620;23;20416;-84
2021/12/05 21:05:11;;;;;;;5.67;4.20;;;7.20;99.90;;;;;;6135505;23;20436;-85
2021/12/05 21:12:02;;;;;;;6.13;4.20;;;7.30;99.90;;;;;;6141319;23;20711;-85
2021/12/05 21:14:35;;;;;;;5.67;4.07;;;7.30;99.90;;;;;;6141366;23;20436;-85
2021/12/05 21:21:34;;;;;;;5.03;4.17;;;7.50;99.90;;;;;;6089458;23;20377;-88
2021/12/05 21:25:18;;;;;;;4.07;3.67;;;7.60;99.90;;;;;;6062726;23;20900;-86
2021/12/05 21:28:13;;;;;;;5.13;4.50;;;7.50;99.90;;;;;;5967230;23;20429;-86
2021/12/05 21:34:41;;;;;;;5.07;4.37;;;7.40;99.90;;;;;;6076173;23;20382;-87
2021/12/05 21:38:26;;;;;;;4.50;4.10;;;7.60;99.90;;;;;;6054077;23;20385;-90
2021/12/05 21:41:28;;;;;;;4.40;3.77;;;7.50;99.90;;;;;;6013476;23;20490;-86
2021/12/05 21:47:25;;;;;;;4.20;3.90;;;7.70;99.90;;;;;;6079261;23;20425;-90
2021/12/05 21:50:14;;;;;;;6.43;5.93;;;7.60;99.90;;;;;;6047366;23;20442;-88
2021/12/05 21:56:14;;;;;;;;;;;;;;;;;;;;;
2021/12/05 21:59:28;;;;;;;4.03;3.40;;;7.80;99.90;;;;;;6119825;23;20402;-87
2021/12/05 22:08:36;;;;;;;4.60;4.17;;;8.00;99.90;;;;;;6089521;23;20898;-88
2021/12/05 22:11:51;;;;;;;7.03;5.00;;;7.80;99.90;;;;;;6074110;23;20885;-87
2021/12/05 22:18:25;;;;;;;5.00;4.23;;;7.90;99.90;;;;;;6126497;23;20805;-88
2021/12/05 22:21:58;;;;;;;7.00;4.00;;;7.90;99.90;;;;;;6116082;23;20456;-85
2021/12/05 22:25:21;;;;;;;5.23;4.60;;;7.80;99.90;;;;;;6114797;23;20410;-85
2021/12/05 22:32:31;;;;;;;;;;;;;;;;;;;;;
2021/12/05 22:35:33;;;;;;;5.03;4.53;;;7.40;99.90;;;;;;5930941;24;20436;-88
2021/12/05 22:38:39;;;;;;;5.43;4.30;;;7.30;99.90;;;;;;5929252;24;20497;-89
2021/12/05 22:41:53;;;;;;;4.80;4.40;;;7.30;99.90;;;;;;5906415;24;20478;-89
2021/12/05 22:44:53;;;;;;;5.47;4.70;;;7.30;99.90;;;;;;5905735;24;20453;-87
2021/12/05 22:48:01;;;;;;;4.70;4.20;;;7.50;99.90;;;;;;5913781;24;20427;-88
2021/12/05 22:54:59;;;;;;;5.10;4.60;;;7.70;99.90;;;;;;6044459;23;20456;-86
2021/12/05 22:58:23;;;;;;;;;;;;;;;;;;;;;
2021/12/05 23:01:29;;;;;;;5.33;4.83;;;7.70;99.90;;;;;;6127441;23;20403;-87
2021/12/05 23:04:41;;;;;;;4.57;4.13;;;7.80;99.90;;;;;;6126895;23;20403;-86
2021/12/05 23:07:38;;;;;;;4.30;3.90;;;7.70;99.90;;;;;;6128246;23;20420;-87
2021/12/05 23:10:13;;;;;;;4.87;4.43;;;7.90;99.90;;;;;;6126785;23;20446;-87
2021/12/05 23:13:35;;;;;;;4.60;3.97;;;7.90;99.90;;;;;;6126648;23;20443;-88
2021/12/05 23:16:40;;;;;;;5.20;4.40;;;7.80;99.90;;;;;;6127808;23;20420;-88
2021/12/05 23:19:59;;;;;;;6.43;5.50;;;7.80;99.90;;;;;;6132183;23;20412;-87
2021/12/05 23:23:09;;;;;;;4.57;4.23;;;7.70;99.90;;;;;;6135275;23;20420;-86
2021/12/05 23:26:33;;;;;;;4.73;4.23;;;7.70;99.90;;;;;;6129724;23;20424;-87
2021/12/05 23:29:37;;;;;;;6.37;5.00;;;7.80;99.90;;;;;;6071597;23;20523;-87
2021/12/05 23:33:17;;;;;;;6.27;5.17;;;7.70;99.90;;;;;;6095284;23;20510;-85
2021/12/05 23:36:27;;;;;;;7.23;4.77;;;7.50;99.90;;;;;;6125136;23;20423;-88
2021/12/05 23:39:14;;;;;;;4.73;4.33;;;7.60;99.90;;;;;;6119612;23;20518;-86
2021/12/05 23:42:03;;;;;;;5.33;4.07;;;7.70;99.90;;;;;;6119891;23;20481;-89
2021/12/05 23:45:16;;;;;;;5.77;4.50;;;7.80;99.90;;;;;;6037770;23;20436;-85
2021/12/05 23:48:13;;;;;;;4.03;3.63;;;7.70;99.90;;;;;;6032868;23;20409;-85
2021/12/05 23:54:52;;;;;;;4.93;3.77;;;7.50;99.90;;;;;;6102194;23;20561;-85
2021/12/05 23:58:02;;;;;;;4.27;3.90;;;7.40;99.90;;;;;;6116869;23;20444;-86
